sensor_id;sensor_type;location;lat;lon;timestamp;pressure;altitude;pressure_sealevel;temperature;humidity
51229;BME280;37304;52.216;6.874;2023-02-28T00:02:45;102831.31;;;0.20;100.00
51229;BME280;37304;52.216;6.874;2023-02-28T00:07:46;102832.63;;;0.28;100.00
51229;BME280;37304;52.216;6.874;2023-02-28T00:12:51;102837.50;;;0.39;100.00
51229;BME280;37304;52.216;6.874;2023-02-28T00:17:52;102830.44;;;0.50;100.00
51229;BME280;37304;52.216;6.874;2023-02-28T00:22:53;102832.88;;;0.63;100.00
51229;BME280;37304;52.216;6.874;2023-02-28T00:27:54;102837.59;;;0.70;100.00
51229;BME280;37304;52.216;6.874;2023-02-28T00:32:54;102829.19;;;0.73;100.00
51229;BME280;37304;52.216;6.874;2023-02-28T00:37:54;102827.75;;;0.78;100.00
51229;BME280;37304;52.216;6.874;2023-02-28T00:42:55;102830.41;;;0.80;100.00
51229;BME280;37304;52.216;6.874;2023-02-28T00:47:55;102830.47;;;0.81;100.00
51229;BME280;37304;52.216;6.874;2023-02-28T00:52:55;102829.84;;;0.85;100.00
51229;BME280;37304;52.216;6.874;2023-02-28T00:57:56;102816.88;;;0.82;100.00
51229;BME280;37304;52.216;6.874;2023-02-28T01:02:58;102818.66;;;0.83;100.00
51229;BME280;37304;52.216;6.874;2023-02-28T01:07:59;102830.59;;;0.83;100.00
51229;BME280;37304;52.216;6.874;2023-02-28T01:12:59;102831.63;;;0.86;100.00
51229;BME280;37304;52.216;6.874;2023-02-28T01:18:00;102821.47;;;0.88;100.00
51229;BME280;37304;52.216;6.874;2023-02-28T01:23:00;102828.38;;;0.89;100.00
51229;BME280;37304;52.216;6.874;2023-02-28T01:28:01;102829.22;;;0.90;100.00
51229;BME280;37304;52.216;6.874;2023-02-28T01:33:01;102829.97;;;0.87;100.00
51229;BME280;37304;52.216;6.874;2023-02-28T01:38:02;102816.88;;;0.82;100.00
51229;BME280;37304;52.216;6.874;2023-02-28T01:43:04;102821.16;;;0.82;100.00
51229;BME280;37304;52.216;6.874;2023-02-28T01:48:07;102818.47;;;0.80;100.00
51229;BME280;37304;52.216;6.874;2023-02-28T01:53:13;102814.00;;;0.76;100.00
51229;BME280;37304;52.216;6.874;2023-02-28T01:58:15;102809.94;;;0.80;100.00
51229;BME280;37304;52.216;6.874;2023-02-28T02:03:17;102809.03;;;0.79;100.00
51229;BME280;37304;52.216;6.874;2023-02-28T02:08:25;102810.72;;;0.79;100.00
51229;BME280;37304;52.216;6.874;2023-02-28T02:40:53;102797.38;;;0.84;100.00
51229;BME280;37304;52.216;6.874;2023-02-28T02:46:00;102811.78;;;0.82;100.00
51229;BME280;37304;52.216;6.874;2023-02-28T02:51:07;102805.78;;;0.82;100.00
51229;BME280;37304;52.216;6.874;2023-02-28T02:56:13;102802.16;;;0.78;100.00
51229;BME280;37304;52.216;6.874;2023-02-28T03:01:22;102803.91;;;0.79;100.00
51229;BME280;37304;52.216;6.874;2023-02-28T03:06:27;102813.19;;;0.77;100.00
51229;BME280;37304;52.216;6.874;2023-02-28T03:11:28;102813.28;;;0.79;100.00
51229;BME280;37304;52.216;6.874;2023-02-28T03:16:33;102813.19;;;0.77;100.00
51229;BME280;37304;52.216;6.874;2023-02-28T03:21:53;102807.28;;;0.78;100.00
51229;BME280;37304;52.216;6.874;2023-02-28T03:27:01;102799.03;;;0.67;100.00
51229;BME280;37304;52.216;6.874;2023-02-28T03:32:27;102785.50;;;0.70;100.00
51229;BME280;37304;52.216;6.874;2023-02-28T03:37:29;102785.34;;;0.67;100.00
51229;BME280;37304;52.216;6.874;2023-02-28T03:42:34;102791.34;;;0.67;100.00
51229;BME280;37304;52.216;6.874;2023-02-28T03:47:48;102791.69;;;0.58;100.00
51229;BME280;37304;52.216;6.874;2023-02-28T03:53:04;102800.63;;;0.50;100.00
51229;BME280;37304;52.216;6.874;2023-02-28T03:58:27;102803.19;;;0.50;100.00
51229;BME280;37304;52.216;6.874;2023-02-28T04:03:30;102801.78;;;0.40;100.00
51229;BME280;37304;52.216;6.874;2023-02-28T04:08:32;102801.88;;;0.42;100.00
51229;BME280;37304;52.216;6.874;2023-02-28T04:13:32;102791.72;;;0.43;100.00
51229;BME280;37304;52.216;6.874;2023-02-28T04:18:33;102789.78;;;0.39;100.00
51229;BME280;37304;52.216;6.874;2023-02-28T04:23:33;102804.78;;;0.33;100.00
51229;BME280;37304;52.216;6.874;2023-02-28T04:28:33;102813.41;;;0.35;100.00
51229;BME280;37304;52.216;6.874;2023-02-28T04:33:37;102806.63;;;0.36;100.00
51229;BME280;37304;52.216;6.874;2023-02-28T04:38:38;102808.13;;;0.32;100.00
51229;BME280;37304;52.216;6.874;2023-02-28T04:43:39;102811.75;;;0.36;100.00
51229;BME280;37304;52.216;6.874;2023-02-28T04:48:40;102816.25;;;0.40;100.00
51229;BME280;37304;52.216;6.874;2023-02-28T04:53:41;102818.00;;;0.41;100.00
51229;BME280;37304;52.216;6.874;2023-02-28T04:58:42;102816.59;;;0.46;100.00
51229;BME280;37304;52.216;6.874;2023-02-28T05:03:43;102819.78;;;0.42;100.00
51229;BME280;37304;52.216;6.874;2023-02-28T05:08:44;102812.53;;;0.50;100.00
51229;BME280;37304;52.216;6.874;2023-02-28T05:13:45;102816.84;;;0.51;100.00
51229;BME280;37304;52.216;6.874;2023-02-28T05:18:46;102826.22;;;0.50;100.00
51229;BME280;37304;52.216;6.874;2023-02-28T05:23:46;102822.69;;;0.48;100.00
51229;BME280;37304;52.216;6.874;2023-02-28T05:28:46;102824.69;;;0.54;100.00
51229;BME280;37304;52.216;6.874;2023-02-28T05:33:47;102833.97;;;0.52;100.00
51229;BME280;37304;52.216;6.874;2023-02-28T05:38:48;102828.75;;;0.50;100.00
51229;BME280;37304;52.216;6.874;2023-02-28T05:43:49;102833.88;;;0.50;100.00
51229;BME280;37304;52.216;6.874;2023-02-28T05:48:49;102833.88;;;0.50;100.00
51229;BME280;37304;52.216;6.874;2023-02-28T05:53:49;102844.00;;;0.49;100.00
51229;BME280;37304;52.216;6.874;2023-02-28T05:58:50;102837.94;;;0.47;100.00
51229;BME280;37304;52.216;6.874;2023-02-28T06:03:50;102846.50;;;0.47;100.00
51229;BME280;37304;52.216;6.874;2023-02-28T06:08:50;102854.06;;;0.46;100.00
51229;BME280;37304;52.216;6.874;2023-02-28T06:13:53;102856.28;;;0.39;100.00
51229;BME280;37304;52.216;6.874;2023-02-28T06:18:53;102865.03;;;0.43;100.00
51229;BME280;37304;52.216;6.874;2023-02-28T06:23:57;102868.56;;;0.45;100.00
51229;BME280;37304;52.216;6.874;2023-02-28T06:28:57;102870.84;;;0.40;100.00
51229;BME280;37304;52.216;6.874;2023-02-28T06:33:57;102862.38;;;0.41;100.00
51229;BME280;37304;52.216;6.874;2023-02-28T06:38:58;102869.34;;;0.44;100.00
51229;BME280;37304;52.216;6.874;2023-02-28T06:43:58;102869.97;;;0.40;100.00
51229;BME280;37304;52.216;6.874;2023-02-28T06:48:59;102875.88;;;0.39;100.00
51229;BME280;37304;52.216;6.874;2023-02-28T06:53:59;102879.41;;;0.41;100.00
51229;BME280;37304;52.216;6.874;2023-02-28T06:58:59;102880.00;;;0.52;100.00
51229;BME280;37304;52.216;6.874;2023-02-28T07:04:00;102883.47;;;0.52;100.00
51229;BME280;37304;52.216;6.874;2023-02-28T07:09:00;102883.34;;;0.51;100.00
51229;BME280;37304;52.216;6.874;2023-02-28T07:14:01;102883.34;;;0.51;100.00
51229;BME280;37304;52.216;6.874;2023-02-28T07:19:01;102890.34;;;0.53;100.00
51229;BME280;37304;52.216;6.874;2023-02-28T07:24:01;102892.09;;;0.54;100.00
51229;BME280;37304;52.216;6.874;2023-02-28T07:29:02;102886.81;;;1.28;100.00
51229;BME280;37304;52.216;6.874;2023-02-28T07:34:02;102881.88;;;1.48;100.00
51229;BME280;37304;52.216;6.874;2023-02-28T07:39:03;102885.88;;;1.42;100.00
51229;BME280;37304;52.216;6.874;2023-02-28T07:44:04;102887.69;;;1.77;100.00
51229;BME280;37304;52.216;6.874;2023-02-28T07:49:06;102887.63;;;1.43;100.00
51229;BME280;37304;52.216;6.874;2023-02-28T07:54:06;102890.38;;;1.47;100.00
51229;BME280;37304;52.216;6.874;2023-02-28T07:59:07;102894.00;;;1.50;100.00
51229;BME280;37304;52.216;6.874;2023-02-28T08:04:08;102889.63;;;3.57;100.00
51229;BME280;37304;52.216;6.874;2023-02-28T08:09:08;102889.16;;;3.86;100.00
51229;BME280;37304;52.216;6.874;2023-02-28T08:14:09;102886.22;;;6.18;97.32
51229;BME280;37304;52.216;6.874;2023-02-28T08:19:09;102890.34;;;4.97;90.58
51229;BME280;37304;52.216;6.874;2023-02-28T08:24:09;102885.63;;;5.78;85.70
51229;BME280;37304;52.216;6.874;2023-02-28T08:29:11;102886.22;;;5.23;85.63
51229;BME280;37304;52.216;6.874;2023-02-28T08:34:14;102894.88;;;4.60;81.75
51229;BME280;37304;52.216;6.874;2023-02-28T08:39:14;102897.13;;;4.31;79.59
51229;BME280;37304;52.216;6.874;2023-02-28T08:44:15;102902.91;;;4.06;80.14
51229;BME280;37304;52.216;6.874;2023-02-28T08:49:15;102898.03;;;4.53;80.13
51229;BME280;37304;52.216;6.874;2023-02-28T08:54:16;102906.56;;;4.94;76.31
51229;BME280;37304;52.216;6.874;2023-02-28T08:59:19;102890.97;;;5.35;69.85
51229;BME280;37304;52.216;6.874;2023-02-28T09:04:19;102887.84;;;5.67;68.97
51229;BME280;37304;52.216;6.874;2023-02-28T09:09:20;102887.59;;;6.85;66.32
51229;BME280;37304;52.216;6.874;2023-02-28T09:14:20;102884.84;;;9.42;64.38
51229;BME280;37304;52.216;6.874;2023-02-28T09:19:20;102879.50;;;10.76;55.84
51229;BME280;37304;52.216;6.874;2023-02-28T09:24:20;102876.22;;;12.36;49.82
51229;BME280;37304;52.216;6.874;2023-02-28T09:29:21;102869.38;;;12.50;41.71
51229;BME280;37304;52.216;6.874;2023-02-28T09:34:21;102857.66;;;13.24;41.31
51229;BME280;37304;52.216;6.874;2023-02-28T09:39:22;102864.41;;;12.88;38.62
51229;BME280;37304;52.216;6.874;2023-02-28T09:44:31;102869.38;;;12.49;35.09
51229;BME280;37304;52.216;6.874;2023-02-28T09:49:46;102855.22;;;11.42;35.75
51229;BME280;37304;52.216;6.874;2023-02-28T09:54:47;102864.09;;;12.38;35.81
51229;BME280;37304;52.216;6.874;2023-02-28T10:00:13;102853.53;;;11.42;35.77
51229;BME280;37304;52.216;6.874;2023-02-28T10:05:27;102860.78;;;11.70;35.46
51229;BME280;37304;52.216;6.874;2023-02-28T10:10:39;102849.84;;;12.02;34.14
51229;BME280;37304;52.216;6.874;2023-02-28T10:15:41;102851.03;;;11.53;35.59
51229;BME280;37304;52.216;6.874;2023-02-28T10:20:42;102852.06;;;12.59;36.30
51229;BME280;37304;52.216;6.874;2023-02-28T10:25:50;102849.59;;;11.80;35.37
51229;BME280;37304;52.216;6.874;2023-02-28T10:30:53;102840.28;;;13.35;34.88
51229;BME280;37304;52.216;6.874;2023-02-28T10:35:54;102841.34;;;13.84;33.14
51229;BME280;37304;52.216;6.874;2023-02-28T10:41:16;102859.53;;;12.15;33.59
51229;BME280;37304;52.216;6.874;2023-02-28T10:46:18;102857.06;;;12.31;34.41
51229;BME280;37304;52.216;6.874;2023-02-28T10:51:34;102847.88;;;11.82;39.00
51229;BME280;37304;52.216;6.874;2023-02-28T10:56:35;102841.66;;;12.60;35.19
51229;BME280;37304;52.216;6.874;2023-02-28T11:01:41;102837.34;;;12.70;35.95
51229;BME280;37304;52.216;6.874;2023-02-28T11:06:41;102832.03;;;12.56;35.41
51229;BME280;37304;52.216;6.874;2023-02-28T11:11:44;102836.69;;;11.92;35.15
51229;BME280;37304;52.216;6.874;2023-02-28T11:16:45;102830.03;;;13.97;37.32
51229;BME280;37304;52.216;6.874;2023-02-28T11:21:53;102837.09;;;12.33;35.18
51229;BME280;37304;52.216;6.874;2023-02-28T11:26:55;102823.22;;;12.38;34.27
51229;BME280;37304;52.216;6.874;2023-02-28T11:37:02;102807.09;;;12.97;33.95
51229;BME280;37304;52.216;6.874;2023-02-28T11:42:15;102802.13;;;13.65;33.78
51229;BME280;37304;52.216;6.874;2023-02-28T11:48:16;102805.41;;;13.15;33.86
51229;BME280;37304;52.216;6.874;2023-02-28T11:58:14;102805.88;;;12.42;35.64
51229;BME280;37304;52.216;6.874;2023-02-28T12:04:03;102792.41;;;13.30;32.93
51229;BME280;37304;52.216;6.874;2023-02-28T12:25:18;102780.09;;;8.56;38.20
51229;BME280;37304;52.216;6.874;2023-02-28T12:30:35;102779.25;;;6.93;40.54
51229;BME280;37304;52.216;6.874;2023-02-28T12:35:43;102787.69;;;5.81;43.30
51229;BME280;37304;52.216;6.874;2023-02-28T12:40:52;102777.34;;;5.55;46.72
51229;BME280;37304;52.216;6.874;2023-02-28T12:45:59;102763.03;;;5.39;45.54
51229;BME280;37304;52.216;6.874;2023-02-28T12:51:01;102755.13;;;4.87;46.33
51229;BME280;37304;52.216;6.874;2023-02-28T12:56:29;102746.06;;;4.74;48.59
51229;BME280;37304;52.216;6.874;2023-02-28T13:02:00;102738.41;;;4.99;48.88
51229;BME280;37304;52.216;6.874;2023-02-28T13:12:24;102727.22;;;9.32;41.83
51229;BME280;37304;52.216;6.874;2023-02-28T13:17:26;102715.81;;;10.88;38.75
51229;BME280;37304;52.216;6.874;2023-02-28T13:22:44;102722.91;;;11.00;37.78
51229;BME280;37304;52.216;6.874;2023-02-28T13:27:44;102713.72;;;12.37;37.03
51229;BME280;37304;52.216;6.874;2023-02-28T13:32:46;102710.03;;;10.43;38.88
51229;BME280;37304;52.216;6.874;2023-02-28T13:37:47;102721.16;;;11.89;38.21
51229;BME280;37304;52.216;6.874;2023-02-28T13:42:49;102719.97;;;11.53;37.12
51229;BME280;37304;52.216;6.874;2023-02-28T13:47:56;102712.59;;;8.50;41.97
51229;BME280;37304;52.216;6.874;2023-02-28T13:58:43;102715.91;;;7.08;44.89
51229;BME280;37304;52.216;6.874;2023-02-28T14:09:32;102716.84;;;6.23;46.38
51229;BME280;37304;52.216;6.874;2023-02-28T14:19:38;102703.44;;;5.56;46.79
51229;BME280;37304;52.216;6.874;2023-02-28T14:34:50;102702.03;;;5.15;49.80
51229;BME280;37304;52.216;6.874;2023-02-28T14:39:53;102692.78;;;5.20;50.78
51229;BME280;37304;52.216;6.874;2023-02-28T14:44:54;102704.38;;;4.85;51.30
51229;BME280;37304;52.216;6.874;2023-02-28T14:49:57;102690.75;;;4.64;52.70
51229;BME280;37304;52.216;6.874;2023-02-28T15:05:39;102686.53;;;4.44;52.72
51229;BME280;37304;52.216;6.874;2023-02-28T15:10:44;102677.91;;;4.43;53.16
51229;BME280;37304;52.216;6.874;2023-02-28T15:20:52;102686.53;;;4.44;55.05
51229;BME280;37304;52.216;6.874;2023-02-28T15:25:54;102685.53;;;4.40;54.86
51229;BME280;37304;52.216;6.874;2023-02-28T15:31:00;102688.06;;;4.39;54.74
51229;BME280;37304;52.216;6.874;2023-02-28T15:36:16;102693.63;;;4.28;54.31
51229;BME280;37304;52.216;6.874;2023-02-28T15:41:26;102696.09;;;4.25;55.61
51229;BME280;37304;52.216;6.874;2023-02-28T15:46:27;102695.59;;;4.13;56.84
51229;BME280;37304;52.216;6.874;2023-02-28T15:51:40;102691.25;;;4.10;57.59
51229;BME280;37304;52.216;6.874;2023-02-28T15:56:45;102698.06;;;4.10;56.91
51229;BME280;37304;52.216;6.874;2023-02-28T16:01:46;102696.19;;;4.05;57.91
51229;BME280;37304;52.216;6.874;2023-02-28T16:12:01;102707.16;;;4.01;59.02
51229;BME280;37304;52.216;6.874;2023-02-28T16:17:04;102697.19;;;3.88;60.51
51229;BME280;37304;52.216;6.874;2023-02-28T16:22:05;102705.91;;;3.70;62.94
51229;BME280;37304;52.216;6.874;2023-02-28T16:27:06;102701.97;;;3.78;62.46
51229;BME280;37304;52.216;6.874;2023-02-28T16:32:06;102709.44;;;3.72;63.02
51229;BME280;37304;52.216;6.874;2023-02-28T16:37:14;102705.38;;;3.58;64.35
51229;BME280;37304;52.216;6.874;2023-02-28T16:42:24;102712.09;;;3.54;64.02
51229;BME280;37304;52.216;6.874;2023-02-28T16:47:25;102712.03;;;3.33;67.20
51229;BME280;37304;52.216;6.874;2023-02-28T16:52:26;102721.47;;;3.32;66.79
51229;BME280;37304;52.216;6.874;2023-02-28T16:57:27;102724.97;;;3.34;65.55
51229;BME280;37304;52.216;6.874;2023-02-28T17:02:27;102729.63;;;3.24;67.03
51229;BME280;37304;52.216;6.874;2023-02-28T17:07:27;102736.13;;;3.15;67.67
51229;BME280;37304;52.216;6.874;2023-02-28T17:12:28;102738.41;;;3.09;68.72
51229;BME280;37304;52.216;6.874;2023-02-28T17:17:29;102737.69;;;2.94;71.07
51229;BME280;37304;52.216;6.874;2023-02-28T17:22:29;102732.94;;;2.83;72.08
51229;BME280;37304;52.216;6.874;2023-02-28T17:27:30;102740.31;;;2.75;73.21
51229;BME280;37304;52.216;6.874;2023-02-28T17:32:30;102737.53;;;2.71;73.47
51229;BME280;37304;52.216;6.874;2023-02-28T17:37:30;102756.16;;;2.67;74.11
51229;BME280;37304;52.216;6.874;2023-02-28T17:42:31;102762.41;;;2.54;74.73
51229;BME280;37304;52.216;6.874;2023-02-28T17:47:31;102761.09;;;2.44;76.44
51229;BME280;37304;52.216;6.874;2023-02-28T17:52:32;102778.06;;;2.24;79.53
51229;BME280;37304;52.216;6.874;2023-02-28T17:57:36;102781.81;;;2.12;81.25
51229;BME280;37304;52.216;6.874;2023-02-28T18:02:37;102780.84;;;2.10;82.22
51229;BME280;37304;52.216;6.874;2023-02-28T18:07:37;102773.25;;;1.95;84.09
51229;BME280;37304;52.216;6.874;2023-02-28T18:12:38;102783.38;;;1.92;85.07
51229;BME280;37304;52.216;6.874;2023-02-28T18:17:38;102781.00;;;1.79;86.11
51229;BME280;37304;52.216;6.874;2023-02-28T18:22:40;102780.75;;;1.57;89.76
51229;BME280;37304;52.216;6.874;2023-02-28T18:27:41;102777.63;;;1.63;88.36
51229;BME280;37304;52.216;6.874;2023-02-28T18:32:52;102767.13;;;1.58;89.29
51229;BME280;37304;52.216;6.874;2023-02-28T18:37:53;102770.25;;;1.53;89.50
51229;BME280;37304;52.216;6.874;2023-02-28T18:42:53;102770.84;;;1.47;91.82
51229;BME280;37304;52.216;6.874;2023-02-28T18:47:54;102767.31;;;1.45;93.02
51229;BME280;37304;52.216;6.874;2023-02-28T18:52:54;102769.72;;;1.42;93.97
51229;BME280;37304;52.216;6.874;2023-02-28T18:57:57;102773.25;;;1.44;94.86
51229;BME280;37304;52.216;6.874;2023-02-28T19:02:57;102772.50;;;1.47;93.72
51229;BME280;37304;52.216;6.874;2023-02-28T19:07:59;102772.00;;;1.54;93.29
51229;BME280;37304;52.216;6.874;2023-02-28T19:12:59;102778.38;;;1.44;94.71
51229;BME280;37304;52.216;6.874;2023-02-28T19:17:59;102770.66;;;1.27;99.88
51229;BME280;37304;52.216;6.874;2023-02-28T19:23:00;102767.91;;;1.24;99.25
51229;BME280;37304;52.216;6.874;2023-02-28T19:28:01;102765.78;;;1.15;100.00
51229;BME280;37304;52.216;6.874;2023-02-28T19:33:02;102771.91;;;1.02;100.00
51229;BME280;37304;52.216;6.874;2023-02-28T19:38:02;102778.94;;;0.90;100.00
51229;BME280;37304;52.216;6.874;2023-02-28T19:43:02;102782.47;;;0.77;100.00
51229;BME280;37304;52.216;6.874;2023-02-28T19:48:04;102786.59;;;0.58;100.00
51229;BME280;37304;52.216;6.874;2023-02-28T19:53:04;102792.16;;;0.36;100.00
51229;BME280;37304;52.216;6.874;2023-02-28T19:58:05;102799.50;;;0.45;100.00
51229;BME280;37304;52.216;6.874;2023-02-28T20:03:05;102792.44;;;0.41;100.00
51229;BME280;37304;52.216;6.874;2023-02-28T20:08:06;102797.00;;;0.32;100.00
51229;BME280;37304;52.216;6.874;2023-02-28T20:13:07;102799.28;;;0.12;100.00
51229;BME280;37304;52.216;6.874;2023-02-28T20:18:07;102795.66;;;-0.07;100.00
51229;BME280;37304;52.216;6.874;2023-02-28T20:23:08;102807.56;;;-0.22;100.00
51229;BME280;37304;52.216;6.874;2023-02-28T20:28:08;102812.38;;;-0.27;100.00
51229;BME280;37304;52.216;6.874;2023-02-28T20:33:09;102809.88;;;-0.40;100.00
51229;BME280;37304;52.216;6.874;2023-02-28T20:38:09;102806.06;;;-0.47;100.00
51229;BME280;37304;52.216;6.874;2023-02-28T20:43:10;102813.28;;;-0.55;100.00
51229;BME280;37304;52.216;6.874;2023-02-28T20:48:10;102819.59;;;-0.77;100.00
51229;BME280;37304;52.216;6.874;2023-02-28T20:53:11;102826.88;;;-0.83;100.00
51229;BME280;37304;52.216;6.874;2023-02-28T20:58:11;102821.69;;;-0.84;100.00
51229;BME280;37304;52.216;6.874;2023-02-28T21:03:11;102816.97;;;-0.92;100.00
51229;BME280;37304;52.216;6.874;2023-02-28T21:08:12;102818.75;;;-1.04;100.00
51229;BME280;37304;52.216;6.874;2023-02-28T21:13:12;102810.50;;;-1.13;100.00
51229;BME280;37304;52.216;6.874;2023-02-28T21:18:13;102803.44;;;-1.18;100.00
51229;BME280;37304;52.216;6.874;2023-02-28T21:23:14;102811.88;;;-1.32;100.00
51229;BME280;37304;52.216;6.874;2023-02-28T21:28:15;102816.88;;;-1.47;100.00
51229;BME280;37304;52.216;6.874;2023-02-28T21:33:15;102821.91;;;-1.49;100.00
51229;BME280;37304;52.216;6.874;2023-02-28T21:38:16;102824.78;;;-1.69;100.00
51229;BME280;37304;52.216;6.874;2023-02-28T21:43:17;102824.59;;;-1.72;100.00
51229;BME280;37304;52.216;6.874;2023-02-28T21:48:17;102832.22;;;-1.72;100.00
51229;BME280;37304;52.216;6.874;2023-02-28T21:53:17;102835.56;;;-1.73;100.00
51229;BME280;37304;52.216;6.874;2023-02-28T21:58:18;102837.41;;;-1.84;100.00
51229;BME280;37304;52.216;6.874;2023-02-28T22:03:18;102839.44;;;-1.92;100.00
51229;BME280;37304;52.216;6.874;2023-02-28T22:08:18;102829.66;;;-1.86;100.00
51229;BME280;37304;52.216;6.874;2023-02-28T22:13:19;102826.25;;;-1.86;100.00
51229;BME280;37304;52.216;6.874;2023-02-28T22:18:20;102824.78;;;-2.08;100.00
51229;BME280;37304;52.216;6.874;2023-02-28T22:23:20;102842.69;;;-2.20;100.00
51229;BME280;37304;52.216;6.874;2023-02-28T22:28:21;102832.75;;;-2.29;100.00
51229;BME280;37304;52.216;6.874;2023-02-28T22:33:23;102832.88;;;-2.39;100.00
51229;BME280;37304;52.216;6.874;2023-02-28T22:38:23;102830.34;;;-2.39;100.00
51229;BME280;37304;52.216;6.874;2023-02-28T22:43:26;102834.81;;;-2.49;100.00
51229;BME280;37304;52.216;6.874;2023-02-28T22:48:27;102835.47;;;-2.51;100.00
51229;BME280;37304;52.216;6.874;2023-02-28T22:53:30;102846.22;;;-2.55;100.00
51229;BME280;37304;52.216;6.874;2023-02-28T22:58:31;102845.34;;;-2.56;100.00
51229;BME280;37304;52.216;6.874;2023-02-28T23:03:32;102848.66;;;-2.57;100.00
51229;BME280;37304;52.216;6.874;2023-02-28T23:08:32;102845.44;;;-2.66;100.00
51229;BME280;37304;52.216;6.874;2023-02-28T23:13:33;102851.56;;;-2.76;100.00
51229;BME280;37304;52.216;6.874;2023-02-28T23:18:33;102858.34;;;-2.88;100.00
51229;BME280;37304;52.216;6.874;2023-02-28T23:23:34;102870.84;;;-2.91;100.00
51229;BME280;37304;52.216;6.874;2023-02-28T23:28:34;102862.44;;;-3.02;100.00
51229;BME280;37304;52.216;6.874;2023-02-28T23:33:35;102870.28;;;-3.11;100.00
51229;BME280;37304;52.216;6.874;2023-02-28T23:38:37;102871.28;;;-3.21;100.00
51229;BME280;37304;52.216;6.874;2023-02-28T23:43:38;102855.34;;;-3.18;100.00
51229;BME280;37304;52.216;6.874;2023-02-28T23:48:39;102852.16;;;-3.28;100.00
51229;BME280;37304;52.216;6.874;2023-02-28T23:53:42;102858.97;;;-3.39;100.00
51229;BME280;37304;52.216;6.874;2023-02-28T23:58:43;102847.81;;;-3.41;100.00
